createdAt,value
2023-04-13T00:00:37.795Z,1.20
2023-04-13T00:03:05.567Z,1.40
2023-04-13T00:05:34.468Z,1.60
2023-04-13T00:08:03.420Z,1.70
2023-04-13T00:10:37.188Z,1.60
2023-04-13T00:13:04.974Z,1.25
2023-04-13T00:15:32.158Z,1.55
2023-04-13T00:17:58.734Z,1.48
2023-04-13T00:20:25.880Z,1.52
2023-04-13T00:22:52.906Z,1.45
2023-04-13T00:25:19.990Z,1.65
2023-04-13T00:27:46.491Z,1.80
2023-04-13T00:30:14.682Z,1.38
2023-04-13T00:32:43.065Z,1.45
2023-04-13T00:35:11.597Z,1.20
2023-04-13T00:37:38.702Z,1.67
2023-04-13T00:40:08.021Z,1.48
2023-04-13T00:42:34.593Z,1.92
2023-04-13T00:45:01.820Z,1.30
2023-04-13T00:47:32.248Z,1.38
2023-04-13T00:50:03.250Z,1.40
2023-04-13T00:52:30.116Z,1.50
2023-04-13T00:54:57.917Z,1.38
2023-04-13T00:57:25.358Z,1.50
2023-04-13T00:59:52.794Z,1.50
2023-04-13T01:02:26.940Z,1.40
2023-04-13T01:04:57.977Z,1.60
2023-04-13T01:07:24.565Z,2.45
2023-04-13T01:09:56.807Z,1.48
2023-04-13T01:12:32.419Z,1.40
2023-04-13T01:15:12.650Z,1.80
2023-04-13T01:17:42.086Z,1.40
2023-04-13T01:20:16.206Z,1.40
2023-04-13T01:22:56.709Z,1.50
2023-04-13T01:25:50.823Z,1.20
2023-04-13T01:28:21.606Z,1.25
2023-04-13T01:30:50.058Z,1.58
2023-04-13T01:33:17.048Z,1.58
2023-04-13T01:35:44.553Z,1.42
2023-04-13T01:38:14.947Z,1.20
2023-04-13T01:40:42.148Z,1.10
2023-04-13T01:43:10.530Z,1.25
2023-04-13T01:45:53.558Z,1.88
2023-04-13T01:48:37.744Z,1.45
2023-04-13T01:51:25.685Z,1.33
2023-04-13T01:54:16.318Z,1.40
2023-04-13T01:56:45.501Z,1.42
2023-04-13T01:59:13.078Z,1.63
2023-04-13T02:01:40.685Z,1.52
2023-04-13T02:04:07.778Z,1.63
2023-04-13T02:06:37.113Z,2.00
2023-04-13T02:09:08.007Z,1.33
2023-04-13T02:11:36.477Z,1.50
2023-04-13T02:14:05.018Z,1.40
2023-04-13T02:16:32.295Z,1.63
2023-04-13T02:18:58.912Z,2.60
2023-04-13T02:21:25.805Z,1.70
2023-04-13T02:23:52.698Z,1.35
2023-04-13T02:26:21.509Z,1.70
2023-04-13T02:28:50.003Z,1.48
2023-04-13T02:31:19.545Z,1.33
2023-04-13T02:33:46.793Z,1.30
2023-04-13T02:36:13.393Z,1.40
2023-04-13T02:38:50.885Z,1.52
2023-04-13T02:41:24.918Z,1.33
2023-04-13T02:43:52.087Z,1.42
2023-04-13T02:46:23.691Z,1.50
2023-04-13T02:48:56.428Z,1.40
2023-04-13T02:51:23.917Z,1.52
2023-04-13T02:53:52.479Z,1.42
2023-04-13T02:56:19.308Z,1.38
2023-04-13T02:58:50.513Z,1.50
2023-04-13T03:01:19.281Z,1.20
2023-04-13T03:03:46.332Z,1.70
2023-04-13T03:06:13.492Z,1.20
2023-04-13T03:08:51.306Z,1.63
2023-04-13T03:14:34.137Z,1.45
2023-04-13T03:17:06.762Z,1.17
2023-04-13T03:19:38.115Z,0.98
2023-04-13T03:22:05.851Z,1.13
2023-04-13T03:24:35.766Z,0.95
2023-04-13T03:29:38.512Z,1.20
2023-04-13T03:32:07.704Z,1.20
2023-04-13T03:34:36.813Z,1.00
2023-04-13T03:37:10.889Z,1.05
2023-04-13T03:39:42.130Z,1.40
2023-04-13T03:42:14.827Z,1.35
2023-04-13T03:44:47.842Z,1.30
2023-04-13T03:47:14.458Z,1.30
2023-04-13T03:49:41.057Z,1.10
2023-04-13T03:52:08.165Z,1.40
2023-04-13T03:57:06.970Z,1.40
2023-04-13T03:59:34.461Z,1.30
2023-04-13T04:02:05.228Z,1.02
2023-04-13T04:04:35.736Z,1.48
2023-04-13T04:07:02.353Z,1.77
2023-04-13T04:09:29.616Z,1.70
2023-04-13T04:11:58.818Z,1.30
2023-04-13T04:14:36.860Z,1.33
2023-04-13T04:17:12.150Z,1.52
2023-04-13T04:19:39.069Z,1.40
2023-04-13T04:22:09.446Z,1.10
2023-04-13T04:24:39.678Z,2.10
2023-04-13T04:27:06.206Z,1.83
2023-04-13T04:29:35.788Z,1.20
2023-04-13T04:32:12.822Z,1.40
2023-04-13T04:34:41.058Z,1.67
2023-04-13T04:37:20.313Z,1.65
2023-04-13T04:39:56.012Z,1.42
2023-04-13T04:42:25.286Z,1.45
2023-04-13T04:44:52.949Z,1.38
2023-04-13T04:47:21.450Z,1.30
2023-04-13T04:50:04.292Z,1.75
2023-04-13T04:52:36.436Z,1.45
2023-04-13T04:55:06.052Z,1.83
2023-04-13T04:57:34.419Z,1.50
2023-04-13T05:00:09.755Z,1.67
2023-04-13T05:02:37.563Z,2.03
2023-04-13T05:05:09.132Z,1.90
2023-04-13T05:07:38.269Z,1.80
2023-04-13T05:10:07.535Z,1.80
2023-04-13T05:12:37.786Z,2.20
2023-04-13T05:15:05.565Z,2.05
2023-04-13T05:17:32.672Z,2.08
2023-04-13T05:20:01.905Z,2.30
2023-04-13T05:22:42.529Z,2.15
2023-04-13T05:25:09.623Z,1.80
2023-04-13T05:27:37.056Z,2.13
2023-04-13T05:30:05.587Z,2.55
2023-04-13T05:32:34.935Z,2.83
2023-04-13T05:35:05.088Z,2.35
2023-04-13T05:37:32.533Z,2.45
2023-04-13T05:40:00.300Z,2.70
2023-04-13T05:42:31.406Z,2.30
2023-04-13T05:44:59.202Z,2.13
2023-04-13T05:47:30.165Z,2.53
2023-04-13T05:50:04.180Z,2.10
2023-04-13T05:52:31.648Z,2.40
2023-04-13T05:54:58.348Z,2.40
2023-04-13T05:57:26.232Z,3.33
2023-04-13T05:59:55.038Z,2.17
2023-04-13T06:02:26.626Z,2.20
2023-04-13T06:04:57.377Z,1.70
2023-04-13T06:07:35.817Z,2.38
2023-04-13T06:10:04.258Z,2.03
2023-04-13T06:12:30.813Z,2.67
2023-04-13T06:14:57.742Z,2.45
2023-04-13T06:17:24.667Z,2.45
2023-04-13T06:19:51.604Z,2.40
2023-04-13T06:22:18.169Z,2.60
2023-04-13T06:24:44.819Z,2.70
2023-04-13T06:27:11.820Z,2.05
2023-04-13T06:29:40.568Z,1.98
2023-04-13T06:32:10.158Z,2.20
2023-04-13T06:34:36.953Z,2.00
2023-04-13T06:37:05.082Z,1.85
2023-04-13T06:39:42.962Z,2.20
2023-04-13T06:42:10.245Z,1.92
2023-04-13T06:44:51.263Z,1.90
2023-04-13T06:47:18.162Z,1.88
2023-04-13T06:49:45.882Z,1.75
2023-04-13T06:52:12.617Z,1.40
2023-04-13T06:54:39.449Z,1.23
2023-04-13T06:57:18.882Z,1.40
2023-04-13T06:59:45.858Z,1.58
2023-04-13T07:02:12.519Z,1.48
2023-04-13T07:04:39.501Z,1.92
2023-04-13T07:07:16.586Z,1.50
2023-04-13T07:09:45.516Z,1.45
2023-04-13T07:12:12.445Z,1.30
2023-04-13T07:14:40.267Z,1.42
2023-04-13T07:17:11.928Z,1.40
2023-04-13T07:19:45.834Z,0.93
2023-04-13T07:22:12.463Z,1.42
2023-04-13T07:24:39.831Z,1.40
2023-04-13T07:27:09.924Z,1.42
2023-04-13T07:29:36.792Z,1.77
2023-04-13T07:32:07.503Z,1.02
2023-04-13T07:34:36.768Z,1.50
2023-04-13T07:37:03.554Z,1.48
2023-04-13T07:39:32.213Z,1.65
2023-04-13T07:42:00.060Z,1.42
2023-04-13T07:44:35.456Z,1.73
2023-04-13T07:47:02.977Z,1.98
2023-04-13T07:49:31.312Z,1.60
2023-04-13T07:51:58.323Z,2.08
2023-04-13T07:54:27.115Z,2.47
2023-04-13T07:56:56.317Z,1.80
2023-04-13T07:59:26.179Z,2.28
2023-04-13T08:01:53.617Z,1.58
2023-04-13T08:04:22.235Z,1.85
2023-04-13T08:06:49.320Z,1.58
2023-04-13T08:09:21.666Z,1.90
2023-04-13T08:11:49.769Z,1.65
2023-04-13T08:14:16.622Z,1.77
2023-04-13T08:16:43.720Z,1.95
2023-04-13T08:19:11.199Z,1.85
2023-04-13T08:21:44.581Z,2.15
2023-04-13T08:24:11.411Z,2.30
2023-04-13T08:26:38.086Z,1.80
2023-04-13T08:29:04.709Z,1.95
2023-04-13T08:31:32.618Z,2.40
2023-04-13T08:34:04.627Z,2.45
2023-04-13T08:36:31.813Z,2.40
2023-04-13T08:39:05.542Z,2.00
2023-04-13T08:41:39.228Z,2.35
2023-04-13T08:44:08.539Z,2.60
2023-04-13T08:46:44.820Z,2.58
2023-04-13T08:49:12.301Z,2.50
2023-04-13T08:52:00.015Z,2.85
2023-04-13T08:54:28.420Z,2.33
2023-04-13T08:56:57.676Z,3.53
2023-04-13T08:59:29.102Z,2.10
2023-04-13T09:01:56.657Z,2.35
2023-04-13T09:04:29.380Z,2.60
2023-04-13T09:06:59.896Z,2.05
2023-04-13T09:09:27.464Z,2.50
2023-04-13T09:11:54.145Z,2.85
2023-04-13T09:14:20.909Z,2.30
2023-04-13T09:16:48.406Z,2.45
2023-04-13T09:19:32.452Z,1.95
2023-04-13T09:22:12.384Z,2.15
2023-04-13T09:24:40.999Z,1.92
2023-04-13T09:27:22.767Z,2.20
2023-04-13T09:29:54.539Z,2.13
2023-04-13T09:33:06.564Z,2.28
2023-04-13T09:35:33.860Z,1.92
2023-04-13T09:38:00.667Z,2.15
2023-04-13T09:40:27.779Z,2.20
2023-04-13T09:42:56.437Z,2.83
2023-04-13T09:45:23.525Z,2.53
2023-04-13T09:47:50.115Z,3.00
2023-04-13T09:50:28.920Z,2.95
2023-04-13T09:53:05.509Z,2.60
2023-04-13T09:55:37.045Z,2.83
2023-04-13T09:58:14.541Z,3.47
2023-04-13T10:00:43.306Z,2.55
2023-04-13T10:03:12.131Z,2.63
2023-04-13T10:05:55.016Z,2.50
2023-04-13T10:08:36.605Z,2.50
2023-04-13T10:11:08.438Z,3.05
2023-04-13T10:13:40.838Z,2.80
2023-04-13T10:16:31.437Z,2.88
2023-04-13T10:19:05.070Z,3.37
2023-04-13T10:21:35.467Z,3.08
2023-04-13T10:24:11.360Z,4.07
2023-04-13T10:26:39.388Z,2.97
2023-04-13T10:29:06.789Z,3.15
2023-04-13T10:31:39.963Z,2.92
2023-04-13T10:34:07.570Z,2.75
2023-04-13T10:36:42.037Z,3.15
2023-04-13T10:39:09.513Z,2.55
2023-04-13T10:41:37.021Z,2.38
2023-04-13T10:44:07.781Z,2.33
2023-04-13T10:46:35.884Z,2.40
2023-04-13T10:49:03.709Z,2.70
2023-04-13T10:51:43.415Z,2.30
2023-04-13T10:54:10.961Z,2.38
2023-04-13T10:56:37.806Z,2.72
2023-04-13T10:59:04.457Z,2.30
2023-04-13T11:01:31.921Z,2.25
2023-04-13T11:04:09.322Z,2.60
2023-04-13T11:06:39.247Z,2.57
2023-04-13T11:09:06.835Z,2.30
2023-04-13T11:11:36.250Z,2.75
2023-04-13T11:14:03.638Z,1.90
2023-04-13T11:16:31.003Z,2.70
2023-04-13T11:19:04.836Z,2.20
2023-04-13T11:21:31.911Z,2.40
2023-04-13T11:24:01.827Z,2.42
2023-04-13T11:26:38.213Z,2.35
2023-04-13T11:29:05.468Z,3.20
2023-04-13T11:31:39.390Z,1.70
2023-04-13T11:34:07.107Z,2.20
2023-04-13T11:36:33.957Z,2.42
2023-04-13T11:39:01.839Z,2.42
2023-04-13T11:41:30.133Z,2.33
2023-04-13T11:43:57.100Z,2.10
2023-04-13T11:46:25.688Z,2.10
2023-04-13T11:48:52.788Z,2.35
2023-04-13T11:51:21.006Z,2.13
2023-04-13T11:53:48.533Z,4.05
2023-04-13T11:56:15.498Z,2.05
2023-04-13T11:58:42.815Z,2.28
2023-04-13T12:01:14.265Z,2.55
2023-04-13T12:04:01.084Z,3.05
2023-04-13T12:06:34.164Z,2.60
2023-04-13T12:09:09.138Z,2.40
2023-04-13T12:11:44.203Z,2.97
2023-04-13T12:19:24.336Z,2.47
2023-04-13T12:21:56.720Z,2.15
2023-04-13T12:24:38.275Z,2.37
2023-04-13T12:29:41.393Z,2.65
2023-04-13T12:32:14.680Z,2.58
2023-04-13T12:34:42.507Z,2.70
2023-04-13T12:37:11.204Z,2.38
2023-04-13T12:39:38.447Z,2.47
2023-04-13T12:42:05.342Z,2.33
2023-04-13T12:44:34.114Z,1.80
2023-04-13T12:47:01.438Z,2.45
2023-04-13T12:49:28.280Z,2.85
2023-04-13T12:51:55.503Z,2.15
2023-04-13T12:54:22.118Z,2.15
2023-04-13T12:56:48.987Z,2.45
2023-04-13T12:59:16.660Z,2.17
2023-04-13T13:01:43.527Z,2.65
2023-04-13T13:04:11.019Z,2.28
2023-04-13T13:06:38.075Z,2.35
2023-04-13T13:09:05.652Z,1.88
2023-04-13T13:11:32.296Z,2.28
2023-04-13T13:13:58.944Z,2.50
2023-04-13T13:16:27.800Z,2.60
2023-04-13T13:18:54.484Z,2.42
2023-04-13T13:21:21.648Z,2.80
2023-04-13T13:23:48.368Z,1.77
2023-04-13T13:28:45.021Z,2.30
2023-04-13T13:31:12.676Z,2.10
2023-04-13T13:33:39.209Z,2.35
2023-04-13T13:36:07.448Z,2.28
2023-04-13T13:38:35.857Z,3.05
2023-04-13T13:41:03.410Z,2.33
2023-04-13T13:43:30.072Z,2.25
2023-04-13T13:45:56.838Z,2.17
2023-04-13T13:48:24.254Z,1.85
2023-04-13T13:51:00.377Z,2.10
2023-04-13T13:53:30.438Z,2.13
2023-04-13T13:55:57.122Z,1.95
2023-04-13T13:58:23.715Z,2.00
2023-04-13T14:00:50.774Z,2.08
2023-04-13T14:03:17.673Z,2.13
2023-04-13T14:05:44.452Z,2.22
2023-04-13T14:08:12.496Z,1.85
2023-04-13T14:10:39.338Z,1.95
2023-04-13T14:13:06.169Z,2.17
2023-04-13T14:15:33.060Z,2.20
2023-04-13T14:18:09.117Z,2.20
2023-04-13T14:20:41.430Z,1.70
2023-04-13T14:23:09.346Z,2.58
2023-04-13T14:25:40.991Z,2.13
2023-04-13T14:28:08.971Z,1.73
2023-04-13T14:30:35.598Z,2.15
2023-04-13T14:33:03.894Z,2.53
2023-04-13T14:35:41.490Z,1.83
2023-04-13T14:38:11.615Z,1.92
2023-04-13T14:40:38.990Z,1.98
2023-04-13T14:43:05.553Z,2.22
2023-04-13T14:45:32.648Z,2.15
2023-04-13T14:47:59.321Z,2.05
2023-04-13T14:50:26.044Z,1.90
2023-04-13T14:52:52.785Z,2.20
2023-04-13T14:55:19.878Z,2.05
2023-04-13T14:57:47.013Z,2.28
2023-04-13T15:00:38.692Z,2.30
2023-04-13T15:03:07.678Z,3.67
2023-04-13T15:05:39.041Z,2.97
2023-04-13T15:08:07.178Z,2.13
2023-04-13T15:10:37.814Z,1.88
2023-04-13T15:13:06.309Z,2.00
2023-04-13T15:15:36.830Z,2.33
2023-04-13T15:18:04.160Z,1.93
2023-04-13T15:20:31.237Z,2.47
2023-04-13T15:22:58.297Z,1.80
2023-04-13T15:25:25.754Z,1.98
2023-04-13T15:27:54.324Z,1.67
2023-04-13T15:30:29.612Z,1.85
2023-04-13T15:32:57.217Z,1.67
2023-04-13T15:35:25.814Z,1.80
2023-04-13T15:37:53.867Z,2.00
2023-04-13T15:40:30.694Z,1.80
2023-04-13T15:42:57.415Z,1.67
2023-04-13T15:45:24.461Z,2.17
2023-04-13T15:47:51.629Z,1.92
2023-04-13T15:50:20.447Z,2.15
2023-04-13T15:52:47.371Z,2.60
2023-04-13T15:55:14.390Z,2.03
2023-04-13T15:57:41.101Z,1.90
2023-04-13T16:00:08.767Z,2.08
2023-04-13T16:02:36.451Z,1.80
2023-04-13T16:05:03.538Z,1.98
2023-04-13T16:07:30.114Z,2.05
2023-04-13T16:09:58.357Z,1.63
2023-04-13T16:12:31.802Z,2.30
2023-04-13T16:14:59.542Z,1.67
2023-04-13T16:17:33.076Z,1.90
2023-04-13T16:20:21.452Z,2.08
2023-04-13T16:22:49.450Z,2.38
2023-04-13T16:25:19.489Z,1.35
2023-04-13T16:27:48.236Z,2.50
2023-04-13T16:30:20.868Z,1.95
2023-04-13T16:32:48.734Z,1.90
2023-04-13T16:35:15.623Z,2.30
2023-04-13T16:37:42.609Z,1.58
2023-04-13T16:40:13.058Z,1.80
2023-04-13T16:42:40.375Z,1.75
2023-04-13T16:45:11.458Z,1.83
2023-04-13T16:47:39.719Z,1.70
2023-04-13T16:50:09.908Z,1.95
2023-04-13T16:52:38.638Z,1.73
2023-04-13T16:55:14.323Z,1.90
2023-04-13T16:57:44.523Z,1.85
2023-04-13T17:00:12.200Z,1.67
2023-04-13T17:02:40.529Z,1.75
2023-04-13T17:05:09.059Z,1.65
2023-04-13T17:07:39.447Z,1.52
2023-04-13T17:10:28.172Z,1.60
2023-04-13T17:12:54.948Z,1.85
2023-04-13T17:15:22.549Z,1.40
2023-04-13T17:17:49.222Z,1.38
2023-04-13T17:20:17.238Z,1.58
2023-04-13T17:22:44.404Z,1.80
2023-04-13T17:25:12.033Z,1.83
2023-04-13T17:27:38.749Z,1.60
2023-04-13T17:30:06.478Z,1.80
2023-04-13T17:32:34.045Z,1.95
2023-04-13T17:35:01.752Z,1.40
2023-04-13T17:37:29.573Z,1.95
2023-04-13T17:39:56.510Z,1.70
2023-04-13T17:42:27.916Z,1.35
2023-04-13T17:44:54.703Z,1.10
2023-04-13T17:47:22.481Z,1.45
2023-04-13T17:49:49.316Z,1.42
2023-04-13T17:52:16.186Z,1.70
2023-04-13T17:54:42.805Z,1.60
2023-04-13T17:57:09.462Z,1.30
2023-04-13T17:59:36.682Z,1.30
2023-04-13T18:02:04.185Z,1.55
2023-04-13T18:04:31.313Z,1.27
2023-04-13T18:06:58.106Z,1.73
2023-04-13T18:09:26.016Z,1.83
2023-04-13T18:11:52.763Z,1.23
2023-04-13T18:14:19.559Z,1.35
2023-04-13T18:16:46.537Z,1.20
2023-04-13T18:19:13.317Z,1.63
2023-04-13T18:21:40.067Z,1.55
2023-04-13T18:24:07.327Z,1.90
2023-04-13T18:26:33.989Z,1.50
2023-04-13T18:29:00.664Z,1.30
2023-04-13T18:31:29.734Z,1.48
2023-04-13T18:34:07.097Z,2.08
2023-04-13T18:36:33.662Z,1.50
2023-04-13T18:39:01.618Z,2.20
2023-04-13T18:41:28.252Z,1.95
2023-04-13T18:43:55.266Z,1.70
2023-04-13T18:46:26.485Z,1.67
2023-04-13T18:48:53.794Z,2.28
2023-04-13T18:51:20.744Z,2.28
2023-04-13T18:53:47.313Z,2.05
2023-04-13T18:56:13.906Z,2.13
2023-04-13T18:58:40.591Z,1.90
2023-04-13T19:01:19.882Z,2.00
2023-04-13T19:03:47.066Z,2.20
2023-04-13T19:06:14.696Z,2.53
2023-04-13T19:08:46.750Z,2.20
2023-04-13T19:11:19.319Z,2.13
2023-04-13T19:13:48.118Z,2.78
2023-04-13T19:16:14.788Z,2.42
2023-04-13T19:18:42.320Z,2.35
2023-04-13T19:21:09.052Z,2.50
2023-04-13T19:23:38.908Z,2.50
2023-04-13T19:26:06.964Z,2.88
2023-04-13T19:28:33.707Z,3.05
2023-04-13T19:31:00.595Z,2.78
2023-04-13T19:33:27.445Z,2.72
2023-04-13T19:35:53.985Z,3.15
2023-04-13T19:38:21.358Z,3.40
2023-04-13T19:40:47.985Z,2.97
2023-04-13T19:43:20.371Z,3.03
2023-04-13T19:45:47.240Z,3.08
2023-04-13T19:48:23.090Z,2.78
2023-04-13T19:50:49.781Z,3.00
2023-04-13T19:53:16.362Z,3.05
2023-04-13T19:55:43.356Z,3.53
2023-04-13T19:58:10.424Z,3.58
2023-04-13T20:00:38.453Z,3.50
2023-04-13T20:03:05.154Z,2.97
2023-04-13T20:05:32.753Z,3.88
2023-04-13T20:07:59.441Z,2.97
2023-04-13T20:10:26.006Z,2.75
2023-04-13T20:12:52.588Z,2.28
2023-04-13T20:15:19.430Z,2.83
2023-04-13T20:17:47.797Z,3.20
2023-04-13T20:20:15.270Z,2.60
2023-04-13T20:22:41.996Z,2.63
2023-04-13T20:25:10.018Z,2.35
2023-04-13T20:27:37.757Z,2.45
2023-04-13T20:30:04.919Z,2.63
2023-04-13T20:32:32.195Z,2.67
2023-04-13T20:34:59.173Z,2.30
2023-04-13T20:37:25.788Z,3.03
2023-04-13T20:39:53.049Z,3.08
2023-04-13T20:42:20.696Z,3.30
2023-04-13T20:44:47.394Z,2.83
2023-04-13T20:47:14.003Z,2.78
2023-04-13T20:49:43.826Z,3.10
2023-04-13T20:52:13.986Z,2.83
2023-04-13T20:54:41.413Z,3.20
2023-04-13T20:57:09.182Z,2.63
2023-04-13T20:59:37.395Z,2.92
2023-04-13T21:02:04.749Z,3.00
2023-04-13T21:04:31.770Z,3.05
2023-04-13T21:07:02.486Z,2.60
2023-04-13T21:09:30.288Z,3.17
2023-04-13T21:11:57.451Z,3.00
2023-04-13T21:14:24.992Z,2.75
2023-04-13T21:16:52.314Z,3.42
2023-04-13T21:19:19.198Z,3.20
2023-04-13T21:21:46.241Z,3.40
2023-04-13T21:24:13.367Z,3.10
2023-04-13T21:26:40.409Z,2.63
2023-04-13T21:29:07.592Z,3.47
2023-04-13T21:31:34.564Z,3.33
2023-04-13T21:34:05.324Z,3.45
2023-04-13T21:39:03.118Z,3.38
2023-04-13T21:41:29.892Z,3.30
2023-04-13T21:43:56.537Z,3.42
2023-04-13T21:46:23.513Z,2.95
2023-04-13T21:48:50.118Z,3.17
2023-04-13T21:51:16.803Z,3.03
2023-04-13T21:53:43.360Z,2.58
2023-04-13T21:56:10.015Z,3.22
2023-04-13T21:58:41.341Z,3.28
2023-04-13T22:03:42.448Z,3.00
2023-04-13T22:06:10.810Z,2.95
2023-04-13T22:08:37.815Z,3.47
2023-04-13T22:11:04.524Z,2.75
2023-04-13T22:13:31.144Z,2.95
2023-04-13T22:15:58.463Z,2.50
2023-04-13T22:18:26.378Z,3.40
2023-04-13T22:20:53.128Z,3.30
2023-04-13T22:23:19.818Z,3.15
2023-04-13T22:25:54.191Z,3.00
2023-04-13T22:28:20.748Z,2.90
2023-04-13T22:30:47.458Z,3.10
2023-04-13T22:33:14.840Z,2.90
2023-04-13T22:35:41.564Z,3.40
2023-04-13T22:38:08.837Z,3.17
2023-04-13T22:40:41.086Z,3.25
2023-04-13T22:43:07.671Z,3.03
2023-04-13T22:45:34.355Z,2.90
2023-04-13T22:48:01.317Z,3.03
2023-04-13T22:50:29.014Z,3.05
2023-04-13T22:52:56.961Z,2.95
2023-04-13T22:55:23.616Z,3.55
2023-04-13T22:57:50.550Z,3.67
2023-04-13T23:00:20.929Z,3.53
2023-04-13T23:02:50.259Z,4.18
2023-04-13T23:05:17.462Z,3.38
2023-04-13T23:07:44.307Z,3.50
2023-04-13T23:10:10.883Z,3.50
2023-04-13T23:12:37.516Z,3.17
2023-04-13T23:15:04.473Z,3.33
2023-04-13T23:17:31.154Z,3.10
2023-04-13T23:19:57.850Z,3.08
2023-04-13T23:22:24.728Z,3.20
2023-04-13T23:24:53.060Z,3.22
2023-04-13T23:27:19.782Z,3.20
2023-04-13T23:29:52.330Z,3.42
2023-04-13T23:32:18.962Z,3.85
2023-04-13T23:34:45.836Z,3.55
2023-04-13T23:37:13.082Z,3.47
2023-04-13T23:39:49.567Z,3.70
2023-04-13T23:42:16.513Z,3.40
2023-04-13T23:44:43.097Z,3.20
2023-04-13T23:47:09.851Z,3.90
2023-04-13T23:49:36.559Z,3.20
2023-04-13T23:52:03.578Z,2.90
2023-04-13T23:54:30.128Z,3.50
2023-04-13T23:56:57.526Z,2.92
2023-04-13T23:59:24.457Z,3.42
